Time;durP1;ratioP1;P1;durP2;ratioP2;P2;SDS_P1;SDS_P2;PMS_P1;PMS_P2;Temp;Humidity;BMP_temperature;BMP_pressure;BME280_temperature;BME280_humidity;BME280_pressure;Samples;Min_cycle;Max_cycle;Signal;HPM_P1;HPM_P2
2022/11/11 00:01:59;;;;;;;2.72;1.77;;;;;;;;;;4968998;28;20039;-48
2022/11/11 00:04:24;;;;;;;5.60;2.13;;;;;;;;;;4963109;28;20047;-48
2022/11/11 00:06:52;;;;;;;3.55;2.03;;;;;;;;;;4965288;28;20027;-51
2022/11/11 00:09:17;;;;;;;6.57;1.77;;;;;;;;;;4967454;28;20042;-49
2022/11/11 00:11:43;;;;;;;5.15;2.10;;;;;;;;;;4968100;28;20027;-48
2022/11/11 00:14:08;;;;;;;6.65;2.15;;;;;;;;;;4964425;28;20109;-48
2022/11/11 00:25:04;;;;;;;1.70;1.60;;;;;;;;;;4946711;29;20052;-49
2022/11/11 00:27:30;;;;;;;2.08;1.88;;;;;;;;;;4948266;29;20043;-48
2022/11/11 00:29:55;;;;;;;2.38;1.85;;;;;;;;;;4949935;29;20058;-48
2022/11/11 00:32:26;;;;;;;9.18;2.58;;;;;;;;;;4948690;28;20527;-48
2022/11/11 00:37:38;;;;;;;6.35;1.85;;;;;;;;;;4943590;29;20124;-48
2022/11/11 00:40:04;;;;;;;1.70;1.60;;;;;;;;;;4950207;28;21532;-49
2022/11/11 00:42:29;;;;;;;5.57;2.10;;;;;;;;;;4948860;28;20163;-48
2022/11/11 00:44:55;;;;;;;4.32;2.17;;;;;;;;;;4947888;29;20607;-48
2022/11/11 00:52:53;;;;;;;6.38;2.10;;;;;;;;;;4946687;29;20047;-48
2022/11/11 00:55:18;;;;;;;6.07;1.95;;;;;;;;;;4946091;29;20019;-49
2022/11/11 00:57:43;;;;;;;2.38;1.95;;;;;;;;;;4947279;29;20039;-48
2022/11/11 01:00:09;;;;;;;5.00;2.10;;;;;;;;;;4967616;28;20046;-50
2022/11/11 01:02:35;;;;;;;3.38;1.80;;;;;;;;;;4969102;28;20131;-49
2022/11/11 01:05:00;;;;;;;2.20;2.00;;;;;;;;;;4961706;28;20101;-48
2022/11/11 01:07:25;;;;;;;4.55;2.30;;;;;;;;;;4964299;28;20022;-48
2022/11/11 01:09:51;;;;;;;4.65;2.47;;;;;;;;;;4968358;28;20030;-49
2022/11/11 01:12:16;;;;;;;7.18;2.70;;;;;;;;;;4969145;28;20044;-49
2022/11/11 01:14:41;;;;;;;6.45;2.90;;;;;;;;;;4968865;28;20051;-49
2022/11/11 01:17:08;;;;;;;4.15;2.20;;;;;;;;;;4960892;28;20050;-49
2022/11/11 01:19:34;;;;;;;4.68;2.03;;;;;;;;;;4962846;28;20503;-49
2022/11/11 01:21:59;;;;;;;5.97;2.10;;;;;;;;;;4963807;28;20116;-48
2022/11/11 01:24:25;;;;;;;2.67;1.95;;;;;;;;;;4963160;28;20039;-48
2022/11/11 01:26:50;;;;;;;5.78;2.47;;;;;;;;;;4965410;28;20034;-49
2022/11/11 01:29:15;;;;;;;6.18;2.10;;;;;;;;;;4968342;28;20039;-47
2022/11/11 01:31:41;;;;;;;2.75;2.28;;;;;;;;;;4965689;28;20042;-48
2022/11/11 01:34:06;;;;;;;4.47;2.15;;;;;;;;;;4969370;28;20035;-48
2022/11/11 01:36:32;;;;;;;9.27;2.40;;;;;;;;;;4963952;28;20023;-49
2022/11/11 01:38:59;;;;;;;4.90;2.10;;;;;;;;;;4962755;28;20047;-48
2022/11/11 01:41:34;;;;;;;5.57;2.00;;;;;;;;;;4963841;28;20039;-48
2022/11/11 01:44:13;;;;;;;2.55;1.42;;;;;;;;;;4964086;28;20053;-49
2022/11/11 01:46:41;;;;;;;2.75;1.55;;;;;;;;;;4964676;28;20046;-48
2022/11/11 01:49:26;;;;;;;4.38;1.95;;;;;;;;;;4965312;28;20050;-50
2022/11/11 01:52:06;;;;;;;2.15;1.55;;;;;;;;;;4965893;28;20085;-51
2022/11/11 01:54:38;;;;;;;4.72;2.10;;;;;;;;;;4968936;28;20089;-49
2022/11/11 01:57:18;;;;;;;3.17;1.77;;;;;;;;;;4967021;28;20026;-51
2022/11/11 01:59:48;;;;;;;4.15;2.00;;;;;;;;;;4967445;28;20118;-50
2022/11/11 02:02:36;;;;;;;1.90;1.80;;;;;;;;;;4968558;28;20090;-48
2022/11/11 02:07:47;;;;;;;4.00;1.98;;;;;;;;;;4966903;28;20166;-48
2022/11/11 02:10:14;;;;;;;7.85;2.00;;;;;;;;;;4969355;28;20050;-49
2022/11/11 02:15:23;;;;;;;1.60;1.50;;;;;;;;;;4962646;28;20046;-48
2022/11/11 02:17:49;;;;;;;5.55;1.65;;;;;;;;;;4965825;28;20039;-48
2022/11/11 02:20:22;;;;;;;2.20;1.85;;;;;;;;;;4965066;28;20046;-48
2022/11/11 02:22:56;;;;;;;4.32;2.03;;;;;;;;;;4964417;28;20802;-48
2022/11/11 02:25:25;;;;;;;4.68;2.13;;;;;;;;;;4966094;28;20061;-48
2022/11/11 02:27:56;;;;;;;2.33;1.70;;;;;;;;;;4965113;28;20039;-48
2022/11/11 02:30:21;;;;;;;4.35;1.60;;;;;;;;;;4964670;28;20050;-48
2022/11/11 02:32:49;;;;;;;4.53;2.45;;;;;;;;;;4962341;28;20043;-49
2022/11/11 02:35:16;;;;;;;2.40;1.85;;;;;;;;;;4960970;28;20042;-49
2022/11/11 02:37:45;;;;;;;3.05;1.70;;;;;;;;;;4968046;28;20399;-49
2022/11/11 02:40:27;;;;;;;1.70;1.60;;;;;;;;;;4968467;28;20112;-48
2022/11/11 02:42:53;;;;;;;6.10;2.03;;;;;;;;;;4967610;28;20479;-49
2022/11/11 02:45:19;;;;;;;2.67;1.80;;;;;;;;;;4966969;28;20039;-49
2022/11/11 02:47:44;;;;;;;3.67;1.52;;;;;;;;;;4961952;28;20027;-48
2022/11/11 02:50:10;;;;;;;1.95;1.75;;;;;;;;;;4963867;28;20041;-48
2022/11/11 02:52:35;;;;;;;5.60;1.70;;;;;;;;;;4968753;28;20030;-49
2022/11/11 02:55:01;;;;;;;3.35;1.98;;;;;;;;;;4963502;28;20123;-49
2022/11/11 02:57:27;;;;;;;2.08;1.88;;;;;;;;;;4963393;28;20114;-48
2022/11/11 02:59:52;;;;;;;3.10;1.80;;;;;;;;;;4967031;28;20454;-50
2022/11/11 03:02:18;;;;;;;2.97;2.08;;;;;;;;;;4966661;28;20037;-49
2022/11/11 03:04:43;;;;;;;5.05;1.90;;;;;;;;;;4963992;28;20042;-48
2022/11/11 03:07:08;;;;;;;6.18;1.90;;;;;;;;;;4963310;28;20442;-47
2022/11/11 03:09:34;;;;;;;4.07;1.85;;;;;;;;;;4962459;28;20035;-48
2022/11/11 03:11:59;;;;;;;3.22;2.05;;;;;;;;;;4964058;28;20030;-48
2022/11/11 03:14:25;;;;;;;7.63;2.20;;;;;;;;;;4964497;28;20027;-49
2022/11/11 03:19:35;;;;;;;3.45;1.70;;;;;;;;;;4967320;28;20537;-49
2022/11/11 03:22:02;;;;;;;7.10;1.67;;;;;;;;;;4963925;28;20055;-49
2022/11/11 03:25:36;;;;;;;6.70;1.75;;;;;;;;;;4964069;28;20035;-49
2022/11/11 03:27:14;;;;;;;2.90;1.80;;;;;;;;;;4962444;28;20070;-48
2022/11/11 03:29:40;;;;;;;7.47;1.80;;;;;;;;;;4960704;28;20118;-49
2022/11/11 03:32:06;;;;;;;4.40;1.92;;;;;;;;;;4963769;28;20039;-48
2022/11/11 03:34:32;;;;;;;2.65;1.70;;;;;;;;;;4968362;28;20039;-50
2022/11/11 03:39:41;;;;;;;3.88;1.80;;;;;;;;;;4965106;28;20061;-48
2022/11/11 03:42:06;;;;;;;2.95;1.75;;;;;;;;;;4966587;28;20520;-48
2022/11/11 03:44:31;;;;;;;4.00;1.80;;;;;;;;;;4966648;28;20110;-50
2022/11/11 03:46:57;;;;;;;3.05;2.05;;;;;;;;;;4966252;28;20031;-49
2022/11/11 03:49:22;;;;;;;14.52;2.20;;;;;;;;;;4966815;28;20049;-48
2022/11/11 03:51:47;;;;;;;3.15;2.03;;;;;;;;;;4965660;28;20030;-51
2022/11/11 03:54:13;;;;;;;2.95;1.90;;;;;;;;;;4966718;28;20521;-48
2022/11/11 03:56:38;;;;;;;2.95;1.80;;;;;;;;;;4963787;28;20051;-49
2022/11/11 03:59:03;;;;;;;3.72;2.03;;;;;;;;;;4971466;28;20103;-48
2022/11/11 04:12:27;;;;;;;3.60;1.90;;;;;;;;;;4909793;29;20043;-48
2022/11/11 04:17:37;;;;;;;3.60;1.80;;;;;;;;;;4911339;29;20043;-48
2022/11/11 04:22:47;;;;;;;8.98;2.03;;;;;;;;;;4912112;29;20100;-48
2022/11/11 04:30:41;;;;;;;3.70;1.77;;;;;;;;;;4910023;29;20051;-48
2022/11/11 04:33:06;;;;;;;6.00;2.03;;;;;;;;;;4911275;29;20107;-49
2022/11/11 04:35:32;;;;;;;3.50;2.05;;;;;;;;;;4911309;29;20093;-50
2022/11/11 04:41:02;;;;;;;6.05;2.03;;;;;;;;;;4910311;29;20044;-48
2022/11/11 04:43:27;;;;;;;4.50;2.35;;;;;;;;;;4922664;28;20077;-48
2022/11/11 04:45:52;;;;;;;3.25;1.55;;;;;;;;;;4968136;28;20058;-49
2022/11/11 04:48:19;;;;;;;4.78;1.90;;;;;;;;;;4969297;28;20561;-48
2022/11/11 04:50:45;;;;;;;3.22;1.77;;;;;;;;;;4966267;28;20027;-48
2022/11/11 04:53:14;;;;;;;3.25;1.85;;;;;;;;;;4966980;28;20141;-49
2022/11/11 04:58:27;;;;;;;4.50;1.90;;;;;;;;;;4966203;28;20070;-48
2022/11/11 05:00:52;;;;;;;3.20;1.95;;;;;;;;;;4968642;28;20038;-48
2022/11/11 05:03:20;;;;;;;4.45;2.03;;;;;;;;;;4967941;28;20034;-51
2022/11/11 05:11:18;;;;;;;4.80;1.70;;;;;;;;;;4960833;28;20490;-48
2022/11/11 05:22:24;;;;;;;1.95;1.40;;;;;;;;;;4971144;28;20041;-48
2022/11/11 05:27:34;;;;;;;3.05;1.90;;;;;;;;;;4969542;28;20085;-48
2022/11/11 05:30:00;;;;;;;2.28;1.52;;;;;;;;;;4965870;28;20035;-48
2022/11/11 05:32:25;;;;;;;1.88;1.30;;;;;;;;;;4964702;28;20058;-48
2022/11/11 05:34:51;;;;;;;3.50;1.70;;;;;;;;;;4963681;28;20480;-49
2022/11/11 05:37:16;;;;;;;3.63;1.65;;;;;;;;;;4964605;28;20094;-49
2022/11/11 05:39:42;;;;;;;5.40;1.88;;;;;;;;;;4968510;28;20422;-48
2022/11/11 05:42:08;;;;;;;4.10;1.60;;;;;;;;;;4968917;28;20551;-50
2022/11/11 05:44:33;;;;;;;7.50;2.08;;;;;;;;;;4964758;28;20053;-51
2022/11/11 05:46:58;;;;;;;2.42;1.40;;;;;;;;;;4966162;28;20403;-48
2022/11/11 05:49:24;;;;;;;3.03;1.63;;;;;;;;;;4964153;28;20074;-48
2022/11/11 05:51:50;;;;;;;3.47;1.80;;;;;;;;;;4965700;28;20027;-47
2022/11/11 05:54:16;;;;;;;2.35;1.95;;;;;;;;;;4961722;28;20035;-48
2022/11/11 05:56:42;;;;;;;2.33;2.10;;;;;;;;;;4965472;28;20491;-48
2022/11/11 05:59:08;;;;;;;3.22;2.03;;;;;;;;;;4961399;28;20044;-53
2022/11/11 06:01:35;;;;;;;3.30;1.83;;;;;;;;;;4968945;28;20039;-52
2022/11/11 06:04:01;;;;;;;2.90;1.50;;;;;;;;;;4961726;28;20043;-50
2022/11/11 06:06:26;;;;;;;3.90;1.50;;;;;;;;;;4962741;28;20045;-48
2022/11/11 06:08:52;;;;;;;4.53;1.40;;;;;;;;;;4966795;28;20058;-50
2022/11/11 06:11:17;;;;;;;4.22;1.42;;;;;;;;;;4967443;28;20026;-49
2022/11/11 06:13:42;;;;;;;4.90;1.38;;;;;;;;;;4968229;28;20043;-48
2022/11/11 06:16:08;;;;;;;6.82;1.83;;;;;;;;;;4964448;28;20031;-49
2022/11/11 06:18:34;;;;;;;2.35;1.40;;;;;;;;;;4964813;28;20046;-50
2022/11/11 06:21:00;;;;;;;7.68;1.77;;;;;;;;;;4963361;28;20511;-49
2022/11/11 06:23:27;;;;;;;1.48;1.38;;;;;;;;;;4968582;28;20042;-49
2022/11/11 06:26:11;;;;;;;3.40;1.70;;;;;;;;;;4962672;28;20109;-48
2022/11/11 06:28:46;;;;;;;4.07;1.65;;;;;;;;;;4960531;28;20035;-48
2022/11/11 06:31:17;;;;;;;1.73;1.48;;;;;;;;;;4965131;28;20027;-50
2022/11/11 06:33:43;;;;;;;2.17;1.88;;;;;;;;;;4967806;28;20046;-49
2022/11/11 06:36:12;;;;;;;1.70;1.55;;;;;;;;;;4964766;28;20031;-49
2022/11/11 06:38:37;;;;;;;1.60;1.50;;;;;;;;;;4962262;28;20562;-49
2022/11/11 06:41:03;;;;;;;1.40;1.30;;;;;;;;;;4962848;28;20039;-49
2022/11/11 06:43:28;;;;;;;1.67;1.25;;;;;;;;;;4962623;28;20069;-48
2022/11/11 06:45:54;;;;;;;5.55;1.42;;;;;;;;;;4964247;28;20027;-49
2022/11/11 06:48:20;;;;;;;2.13;1.42;;;;;;;;;;4966562;28;20042;-48
2022/11/11 06:50:46;;;;;;;4.07;1.58;;;;;;;;;;4965766;28;20029;-48
2022/11/11 06:53:14;;;;;;;3.08;1.52;;;;;;;;;;4965612;28;20039;-49
2022/11/11 06:55:40;;;;;;;2.72;1.55;;;;;;;;;;4961991;28;20701;-49
2022/11/11 06:58:17;;;;;;;1.88;1.48;;;;;;;;;;4965933;28;20042;-48
2022/11/11 07:00:44;;;;;;;2.13;1.42;;;;;;;;;;4966667;28;20026;-49
2022/11/11 07:03:14;;;;;;;2.97;1.40;;;;;;;;;;4964897;28;20038;-49
2022/11/11 07:05:40;;;;;;;1.50;1.02;;;;;;;;;;4961915;28;20037;-51
2022/11/11 07:08:11;;;;;;;2.38;1.40;;;;;;;;;;4963054;28;20030;-48
2022/11/11 07:10:38;;;;;;;2.10;1.50;;;;;;;;;;4966038;28;20031;-49
2022/11/11 07:13:07;;;;;;;3.10;1.83;;;;;;;;;;4962515;28;20113;-49
2022/11/11 07:15:33;;;;;;;4.78;1.60;;;;;;;;;;4963466;28;20026;-48
2022/11/11 07:17:59;;;;;;;2.25;1.50;;;;;;;;;;4958971;28;20047;-48
2022/11/11 07:20:24;;;;;;;3.72;1.60;;;;;;;;;;4961986;28;20387;-49
2022/11/11 07:22:49;;;;;;;1.30;1.10;;;;;;;;;;4963719;28;20034;-48
2022/11/11 07:25:15;;;;;;;4.07;1.17;;;;;;;;;;4960495;28;20047;-48
2022/11/11 07:27:41;;;;;;;1.77;1.05;;;;;;;;;;4965464;28;20058;-49
2022/11/11 07:30:08;;;;;;;3.28;1.30;;;;;;;;;;4961926;28;20130;-48
2022/11/11 07:32:34;;;;;;;2.10;1.38;;;;;;;;;;4963063;28;20085;-49
2022/11/11 07:34:59;;;;;;;3.53;1.25;;;;;;;;;;4963971;28;20042;-48
2022/11/11 07:37:25;;;;;;;4.13;1.20;;;;;;;;;;4960366;28;20049;-48
2022/11/11 07:39:51;;;;;;;2.38;1.35;;;;;;;;;;4966937;28;20118;-48
2022/11/11 07:42:16;;;;;;;2.15;1.13;;;;;;;;;;4964585;28;20042;-49
2022/11/11 07:44:41;;;;;;;3.20;1.35;;;;;;;;;;4961394;28;20518;-50
2022/11/11 07:47:07;;;;;;;2.38;1.42;;;;;;;;;;4964898;28;20019;-48
2022/11/11 07:49:32;;;;;;;1.50;1.38;;;;;;;;;;4962738;28;20038;-50
2022/11/11 07:51:58;;;;;;;1.30;1.20;;;;;;;;;;4965209;28;20031;-52
2022/11/11 07:54:24;;;;;;;2.00;1.45;;;;;;;;;;4965596;28;20039;-50
2022/11/11 07:56:49;;;;;;;3.70;1.35;;;;;;;;;;4966690;28;20118;-50
2022/11/11 07:59:15;;;;;;;6.00;3.78;;;;;;;;;;4962266;28;20411;-50
2022/11/11 08:01:40;;;;;;;10.80;6.13;;;;;;;;;;4962292;28;20041;-48
2022/11/11 08:04:06;;;;;;;10.50;6.30;;;;;;;;;;4960865;28;20066;-50
2022/11/11 08:06:32;;;;;;;11.82;6.45;;;;;;;;;;4964227;28;20031;-55
2022/11/11 08:08:57;;;;;;;13.70;6.88;;;;;;;;;;4973892;28;20775;-48
2022/11/11 08:14:07;;;;;;;14.68;7.93;;;;;;;;;;4962215;28;20038;-48
2022/11/11 08:16:32;;;;;;;12.60;6.32;;;;;;;;;;4960337;28;20034;-50
2022/11/11 08:18:58;;;;;;;5.55;4.22;;;;;;;;;;4962068;28;20050;-48
2022/11/11 08:21:23;;;;;;;5.25;3.67;;;;;;;;;;4963948;28;20019;-49
2022/11/11 08:23:50;;;;;;;4.75;2.90;;;;;;;;;;4966256;28;20049;-49
2022/11/11 08:26:16;;;;;;;3.72;2.45;;;;;;;;;;4965537;28;20023;-51
2022/11/11 08:28:41;;;;;;;6.13;2.53;;;;;;;;;;4967250;28;20047;-49
2022/11/11 08:31:08;;;;;;;3.63;2.20;;;;;;;;;;4964205;28;20108;-48
2022/11/11 08:33:33;;;;;;;6.55;1.80;;;;;;;;;;4961942;28;20186;-49
2022/11/11 08:35:59;;;;;;;3.70;1.60;;;;;;;;;;4962657;28;20708;-49
2022/11/11 08:38:24;;;;;;;2.95;1.92;;;;;;;;;;4963518;28;20035;-48
2022/11/11 08:40:51;;;;;;;2.80;1.60;;;;;;;;;;4966950;28;20031;-53
2022/11/11 08:43:16;;;;;;;6.05;2.25;;;;;;;;;;4960296;28;20044;-48
2022/11/11 08:45:42;;;;;;;3.88;2.78;;;;;;;;;;4963827;28;20034;-48
2022/11/11 08:48:11;;;;;;;4.45;3.08;;;;;;;;;;4964180;28;20030;-48
2022/11/11 08:50:37;;;;;;;8.88;4.40;;;;;;;;;;4960238;28;20027;-49
2022/11/11 08:53:03;;;;;;;6.00;4.22;;;;;;;;;;4962449;28;20034;-48
2022/11/11 08:55:28;;;;;;;7.88;3.63;;;;;;;;;;4963440;28;20034;-51
2022/11/11 08:58:01;;;;;;;6.35;3.60;;;;;;;;;;4964526;28;20077;-49
2022/11/11 09:00:27;;;;;;;3.45;2.80;;;;;;;;;;4963820;28;20034;-50
2022/11/11 09:02:53;;;;;;;6.38;2.78;;;;;;;;;;4962345;28;20027;-49
2022/11/11 09:05:18;;;;;;;6.25;3.40;;;;;;;;;;4966994;28;20064;-49
2022/11/11 09:07:44;;;;;;;3.85;2.25;;;;;;;;;;4959386;28;20066;-49
2022/11/11 09:10:09;;;;;;;7.32;2.10;;;;;;;;;;4959332;28;20415;-49
2022/11/11 09:12:35;;;;;;;3.17;1.83;;;;;;;;;;4958879;28;20035;-50
2022/11/11 09:15:00;;;;;;;3.85;2.08;;;;;;;;;;4964855;28;20424;-49
2022/11/11 09:17:26;;;;;;;3.67;1.80;;;;;;;;;;4965925;28;20058;-49
2022/11/11 09:19:52;;;;;;;4.45;2.10;;;;;;;;;;4965768;28;20038;-50
2022/11/11 09:22:18;;;;;;;1.85;1.60;;;;;;;;;;4966344;28;22822;-50
2022/11/11 09:24:43;;;;;;;6.32;1.77;;;;;;;;;;4967630;28;20521;-49
2022/11/11 09:27:11;;;;;;;2.33;1.38;;;;;;;;;;4963884;28;20031;-49
2022/11/11 09:29:37;;;;;;;4.68;1.55;;;;;;;;;;4965341;28;20066;-50
2022/11/11 09:32:02;;;;;;;2.85;1.48;;;;;;;;;;4963883;28;20070;-49
2022/11/11 09:34:28;;;;;;;3.00;1.67;;;;;;;;;;4966360;28;20038;-48
2022/11/11 09:36:53;;;;;;;4.57;1.90;;;;;;;;;;4968467;28;20486;-50
2022/11/11 09:39:19;;;;;;;4.38;1.75;;;;;;;;;;4967486;28;20043;-51
2022/11/11 09:41:58;;;;;;;5.75;2.20;;;;;;;;;;4962514;28;20042;-49
2022/11/11 09:44:32;;;;;;;2.92;1.67;;;;;;;;;;4963867;28;20035;-48
2022/11/11 09:47:01;;;;;;;3.00;2.10;;;;;;;;;;4966072;28;20488;-49
2022/11/11 09:49:32;;;;;;;3.97;2.17;;;;;;;;;;4965443;28;20042;-51
2022/11/11 09:52:07;;;;;;;4.35;1.90;;;;;;;;;;4968171;28;20027;-50
2022/11/11 09:54:57;;;;;;;3.83;2.10;;;;;;;;;;4961679;28;20058;-48
2022/11/11 09:57:34;;;;;;;6.72;1.98;;;;;;;;;;4964709;28;20041;-51
2022/11/11 10:00:04;;;;;;;5.97;2.10;;;;;;;;;;4961636;28;20034;-50
2022/11/11 10:02:40;;;;;;;3.22;2.20;;;;;;;;;;4965972;28;20039;-50
2022/11/11 10:05:14;;;;;;;3.72;2.28;;;;;;;;;;4963378;28;20097;-48
2022/11/11 10:07:49;;;;;;;6.60;1.95;;;;;;;;;;4964600;28;20109;-48
2022/11/11 10:10:25;;;;;;;4.25;1.67;;;;;;;;;;4964130;28;20704;-51
2022/11/11 10:12:56;;;;;;;3.55;1.90;;;;;;;;;;4966363;28;20541;-50
2022/11/11 10:15:26;;;;;;;2.85;1.50;;;;;;;;;;4963547;28;20049;-50
2022/11/11 10:18:04;;;;;;;3.33;1.90;;;;;;;;;;4964060;28;20038;-50
2022/11/11 10:20:33;;;;;;;4.40;1.60;;;;;;;;;;4967206;28;20038;-50
2022/11/11 10:23:22;;;;;;;2.90;1.50;;;;;;;;;;4967976;28;20030;-50
2022/11/11 10:25:54;;;;;;;3.45;2.00;;;;;;;;;;4962085;28;20035;-49
2022/11/11 10:28:23;;;;;;;2.42;1.60;;;;;;;;;;4966583;28;20487;-48
2022/11/11 10:30:51;;;;;;;3.88;1.60;;;;;;;;;;4963456;28;20080;-49
2022/11/11 10:33:26;;;;;;;3.55;1.67;;;;;;;;;;4964421;28;20049;-49
2022/11/11 10:35:52;;;;;;;3.25;1.42;;;;;;;;;;4966482;28;20510;-48
2022/11/11 10:38:55;;;;;;;4.03;1.52;;;;;;;;;;4966596;28;20160;-48
2022/11/11 10:41:28;;;;;;;1.90;1.67;;;;;;;;;;4964768;28;20042;-49
2022/11/11 10:43:54;;;;;;;3.00;1.55;;;;;;;;;;4961018;28;20035;-50
2022/11/11 10:46:28;;;;;;;5.60;2.00;;;;;;;;;;4967821;28;20368;-48
2022/11/11 10:49:10;;;;;;;2.75;1.77;;;;;;;;;;4960207;28;20071;-51
2022/11/11 10:51:54;;;;;;;5.57;1.67;;;;;;;;;;4967388;28;20097;-49
2022/11/11 10:54:28;;;;;;;2.15;1.50;;;;;;;;;;4960836;28;20035;-48
2022/11/11 10:57:09;;;;;;;1.55;1.45;;;;;;;;;;4966704;28;20027;-48
2022/11/11 10:59:52;;;;;;;3.42;1.70;;;;;;;;;;4963706;28;20050;-48
2022/11/11 11:02:38;;;;;;;2.10;1.80;;;;;;;;;;4961634;28;20035;-47
2022/11/11 11:05:12;;;;;;;5.93;2.47;;;;;;;;;;4962597;28;20594;-48
2022/11/11 11:07:45;;;;;;;4.03;2.33;;;;;;;;;;4965363;28;20035;-48
2022/11/11 11:10:18;;;;;;;6.82;2.55;;;;;;;;;;4964265;28;20054;-48
2022/11/11 11:12:53;;;;;;;2.95;2.00;;;;;;;;;;4964949;28;20101;-48
2022/11/11 11:15:25;;;;;;;3.33;2.13;;;;;;;;;;4965425;28;20133;-49
2022/11/11 11:18:03;;;;;;;;;;;;;;;;;;4966082;28;20035;-48
2022/11/11 11:20:28;;;;;;;3.72;1.75;;;;;;;;;;4964372;28;20489;-49
2022/11/11 11:23:01;;;;;;;1.92;1.70;;;;;;;;;;4963069;28;20109;-52
2022/11/11 11:25:28;;;;;;;2.67;1.85;;;;;;;;;;4963148;28;20038;-51
2022/11/11 11:28:12;;;;;;;2.70;1.95;;;;;;;;;;4964780;28;20094;-50
2022/11/11 11:30:38;;;;;;;2.58;1.60;;;;;;;;;;4966930;28;20033;-48
2022/11/11 11:33:06;;;;;;;2.78;1.50;;;;;;;;;;4962747;28;20030;-48
2022/11/11 11:35:33;;;;;;;5.60;1.80;;;;;;;;;;4965679;28;20030;-54
2022/11/11 11:37:58;;;;;;;2.55;1.80;;;;;;;;;;4964310;28;20031;-47
2022/11/11 11:40:24;;;;;;;3.20;1.58;;;;;;;;;;4966904;28;20026;-51
2022/11/11 11:42:49;;;;;;;4.50;1.45;;;;;;;;;;4963722;28;20395;-48
2022/11/11 11:45:28;;;;;;;2.90;1.58;;;;;;;;;;4965733;28;20035;-49
2022/11/11 11:47:53;;;;;;;1.42;1.33;;;;;;;;;;4962045;28;20038;-46
2022/11/11 11:50:40;;;;;;;4.05;1.60;;;;;;;;;;4965893;28;20023;-48
2022/11/11 11:53:32;;;;;;;3.97;2.00;;;;;;;;;;4963951;28;20031;-51
2022/11/11 11:56:12;;;;;;;3.00;1.40;;;;;;;;;;4966382;28;20030;-47
2022/11/11 11:58:43;;;;;;;5.38;1.83;;;;;;;;;;4968490;28;20039;-49
2022/11/11 12:01:20;;;;;;;2.53;1.55;;;;;;;;;;4970024;28;20054;-50
2022/11/11 12:04:09;;;;;;;1.50;1.40;;;;;;;;;;4970362;28;20038;-49
2022/11/11 12:06:58;;;;;;;2.85;1.40;;;;;;;;;;4964430;28;20043;-47
2022/11/11 12:09:59;;;;;;;2.00;1.10;;;;;;;;;;4966173;28;20057;-48
2022/11/11 12:12:56;;;;;;;1.10;0.80;;;;;;;;;;4970371;28;20502;-48
2022/11/11 12:15:32;;;;;;;2.58;1.38;;;;;;;;;;4968813;28;20055;-48
2022/11/11 12:18:27;;;;;;;1.20;1.10;;;;;;;;;;4969061;28;20045;-47
2022/11/11 12:21:01;;;;;;;4.15;1.02;;;;;;;;;;4964929;28;20062;-49
2022/11/11 12:23:57;;;;;;;4.00;1.15;;;;;;;;;;4964194;28;20038;-48
2022/11/11 12:26:49;;;;;;;1.52;1.40;;;;;;;;;;4967232;28;20038;-48
2022/11/11 12:29:37;;;;;;;2.13;1.50;;;;;;;;;;4964149;28;20035;-49
2022/11/11 12:32:17;;;;;;;2.25;1.42;;;;;;;;;;4969128;28;20488;-48
2022/11/11 12:35:04;;;;;;;1.50;1.40;;;;;;;;;;4964183;28;20039;-49
2022/11/11 12:37:38;;;;;;;1.90;1.27;;;;;;;;;;4972722;28;20038;-48
2022/11/11 12:40:33;;;;;;;1.58;1.15;;;;;;;;;;4968076;28;20039;-47
2022/11/11 12:43:13;;;;;;;1.95;1.33;;;;;;;;;;4967910;28;20491;-48
2022/11/11 12:45:59;;;;;;;2.30;1.90;;;;;;;;;;4966113;28;20060;-48
2022/11/11 12:49:09;;;;;;;2.95;2.03;;;;;;;;;;4966580;28;20558;-48
2022/11/11 12:52:06;;;;;;;1.90;1.33;;;;;;;;;;4967244;28;20031;-48
2022/11/11 12:54:37;;;;;;;1.83;1.73;;;;;;;;;;4926252;29;20039;-51
2022/11/11 12:57:22;;;;;;;1.95;1.55;;;;;;;;;;4929038;29;20039;-48
2022/11/11 13:00:12;;;;;;;1.52;1.40;;;;;;;;;;4929569;29;20625;-47
2022/11/11 13:03:09;;;;;;;3.40;1.40;;;;;;;;;;4929207;29;20035;-47
2022/11/11 13:05:48;;;;;;;2.88;1.50;;;;;;;;;;4926772;29;20520;-50
2022/11/11 13:08:44;;;;;;;2.35;1.45;;;;;;;;;;4929364;29;20476;-48
2022/11/11 13:11:43;;;;;;;3.45;1.50;;;;;;;;;;4927632;29;20043;-49
2022/11/11 13:14:33;;;;;;;2.95;1.88;;;;;;;;;;4929282;29;20126;-47
2022/11/11 13:17:00;;;;;;;1.58;1.48;;;;;;;;;;4926029;29;20415;-47
2022/11/11 13:19:39;;;;;;;2.15;1.83;;;;;;;;;;4927844;29;20099;-48
2022/11/11 13:22:18;;;;;;;7.55;1.50;;;;;;;;;;4927295;29;20044;-48
2022/11/11 13:24:43;;;;;;;1.58;1.48;;;;;;;;;;4924138;29;20575;-49
2022/11/11 13:27:33;;;;;;;2.88;1.55;;;;;;;;;;4925603;29;20031;-51
2022/11/11 13:30:11;;;;;;;2.00;1.80;;;;;;;;;;4925919;29;20039;-49
2022/11/11 13:32:39;;;;;;;4.43;1.60;;;;;;;;;;4966059;28;21057;-50
2022/11/11 13:35:24;;;;;;;7.95;1.50;;;;;;;;;;4966114;28;20707;-49
2022/11/11 13:37:49;;;;;;;1.33;1.23;;;;;;;;;;4964483;28;20546;-50
2022/11/11 13:40:44;;;;;;;4.18;1.70;;;;;;;;;;4963545;28;20035;-48
2022/11/11 13:43:38;;;;;;;1.63;1.50;;;;;;;;;;4963325;28;20121;-48
2022/11/11 13:46:06;;;;;;;2.20;1.63;;;;;;;;;;4961312;28;20047;-48
2022/11/11 13:48:36;;;;;;;2.10;1.40;;;;;;;;;;4967098;28;20089;-52
2022/11/11 13:51:23;;;;;;;4.38;1.55;;;;;;;;;;4969102;28;20038;-49
2022/11/11 13:53:49;;;;;;;2.10;1.50;;;;;;;;;;4962000;28;20038;-47
2022/11/11 13:56:33;;;;;;;2.67;1.50;;;;;;;;;;4967639;28;20027;-50
2022/11/11 13:58:59;;;;;;;3.13;1.30;;;;;;;;;;4966501;28;20531;-49
2022/11/11 14:01:33;;;;;;;3.40;1.70;;;;;;;;;;4964078;28;20026;-51
2022/11/11 14:04:01;;;;;;;3.00;1.50;;;;;;;;;;4964488;28;20047;-49
2022/11/11 14:06:27;;;;;;;3.63;1.70;;;;;;;;;;4967187;28;20483;-47
2022/11/11 14:08:53;;;;;;;3.22;1.50;;;;;;;;;;4961032;28;20050;-48
2022/11/11 14:11:27;;;;;;;4.10;1.30;;;;;;;;;;4965110;28;20034;-48
2022/11/11 14:14:17;;;;;;;3.17;1.00;;;;;;;;;;4964174;28;20042;-48
2022/11/11 14:16:42;;;;;;;1.98;1.30;;;;;;;;;;4956118;28;20042;-48
2022/11/11 14:19:34;;;;;;;1.42;1.33;;;;;;;;;;4965084;28;20038;-48
2022/11/11 14:22:20;;;;;;;8.30;1.23;;;;;;;;;;4961604;28;20046;-49
2022/11/11 14:24:46;;;;;;;4.00;1.60;;;;;;;;;;4964159;28;20039;-49
2022/11/11 14:27:12;;;;;;;1.40;1.30;;;;;;;;;;4962406;28;20031;-49
2022/11/11 14:29:49;;;;;;;4.30;1.60;;;;;;;;;;4966922;28;20867;-49
2022/11/11 14:32:30;;;;;;;1.40;1.30;;;;;;;;;;4963009;28;20039;-51
2022/11/11 14:35:07;;;;;;;2.47;1.52;;;;;;;;;;4965139;28;20138;-49
2022/11/11 14:37:50;;;;;;;2.67;1.25;;;;;;;;;;4965678;28;20027;-49
2022/11/11 14:40:32;;;;;;;3.83;1.55;;;;;;;;;;4964211;28;20500;-48
2022/11/11 14:42:59;;;;;;;;;;;;;;;;;;4967179;28;20059;-50
2022/11/11 14:45:30;;;;;;;9.10;2.08;;;;;;;;;;4966391;28;19918;-49
2022/11/11 14:47:58;;;;;;;4.78;1.75;;;;;;;;;;4963557;28;20495;-49
2022/11/11 14:50:29;;;;;;;3.63;1.77;;;;;;;;;;4963422;28;20058;-49
2022/11/11 14:52:57;;;;;;;3.85;2.03;;;;;;;;;;4964811;28;20030;-51
2022/11/11 14:55:33;;;;;;;7.90;2.00;;;;;;;;;;4966608;28;20026;-51
2022/11/11 14:58:12;;;;;;;4.50;1.73;;;;;;;;;;4964084;28;20543;-52
2022/11/11 15:00:48;;;;;;;6.05;2.10;;;;;;;;;;4963090;28;20505;-51
2022/11/11 15:03:41;;;;;;;5.40;1.77;;;;;;;;;;4966868;28;20042;-47
2022/11/11 15:06:32;;;;;;;2.05;1.58;;;;;;;;;;4962500;28;20038;-48
2022/11/11 15:09:32;;;;;;;2.13;1.67;;;;;;;;;;4965423;28;20035;-49
2022/11/11 15:12:31;;;;;;;5.75;2.10;;;;;;;;;;4964367;28;20391;-49
2022/11/11 15:15:11;;;;;;;4.03;2.28;;;;;;;;;;4956935;28;20074;-52
2022/11/11 15:17:59;;;;;;;2.40;1.65;;;;;;;;;;4966070;28;20827;-47
2022/11/11 15:20:51;;;;;;;4.72;2.00;;;;;;;;;;4963839;28;20066;-48
2022/11/11 15:23:34;;;;;;;4.60;2.22;;;;;;;;;;4960082;28;20039;-48
2022/11/11 15:26:00;;;;;;;7.53;2.25;;;;;;;;;;4963165;28;20035;-49
2022/11/11 15:29:04;;;;;;;8.57;2.60;;;;;;;;;;4966657;28;20089;-48
2022/11/11 15:31:54;;;;;;;5.93;2.42;;;;;;;;;;4874487;29;20045;-48
2022/11/11 15:34:22;;;;;;;8.75;2.92;;;;;;;;;;4868194;29;20593;-52
2022/11/11 15:37:08;;;;;;;9.07;3.97;;;;;;;;;;4870285;29;20051;-48
2022/11/11 15:39:50;;;;;;;13.15;3.85;;;;;;;;;;4873289;29;20044;-49
2022/11/11 15:42:28;;;;;;;5.05;3.00;;;;;;;;;;4870966;29;20041;-49
2022/11/11 15:44:53;;;;;;;12.70;3.88;;;;;;;;;;4869317;29;20495;-48
2022/11/11 15:47:22;;;;;;;8.10;3.30;;;;;;;;;;4872832;29;20037;-48
2022/11/11 15:49:48;;;;;;;6.70;3.83;;;;;;;;;;4872540;29;20048;-52
2022/11/11 15:52:34;;;;;;;12.35;3.92;;;;;;;;;;4871868;29;20029;-45
2022/11/11 15:55:09;;;;;;;7.80;3.78;;;;;;;;;;4870914;29;20081;-45
2022/11/11 15:57:34;;;;;;;7.15;3.88;;;;;;;;;;4871660;29;20045;-46
2022/11/11 16:00:02;;;;;;;8.20;3.40;;;;;;;;;;4875528;29;20041;-47
2022/11/11 17:38:08;;;;;;;16.48;7.00;;;;;;;;;;5014846;28;20625;-46
2022/11/11 17:40:33;;;;;;;10.18;7.13;;;;;;;;;;5010161;28;20510;-46
2022/11/11 17:42:59;;;;;;;10.88;7.85;;;;;;;;;;5011630;28;20049;-50
2022/11/11 17:45:26;;;;;;;14.15;8.95;;;;;;;;;;5014173;28;20402;-46
2022/11/11 17:47:54;;;;;;;13.48;8.95;;;;;;;;;;5019538;28;20060;-45
2022/11/11 17:56:06;;;;;;;11.63;6.85;;;;;;;;;;5046547;27;20655;-49
2022/11/11 17:58:34;;;;;;;22.40;12.38;;;;;;;;;;5025175;28;20042;-47
2022/11/11 18:01:08;;;;;;;22.98;13.10;;;;;;;;;;5014967;28;20038;-46
2022/11/11 18:03:33;;;;;;;20.15;11.43;;;;;;;;;;5012579;28;20140;-46
2022/11/11 18:05:59;;;;;;;16.85;9.05;;;;;;;;;;5017490;28;20052;-47